Time;durP1;ratioP1;P1;durP2;ratioP2;P2;SDS_P1;SDS_P2;PMS_P1;PMS_P2;Temp;Humidity;BMP_temperature;BMP_pressure;BME280_temperature;BME280_humidity;BME280_pressure;Samples;Min_cycle;Max_cycle;Signal;HPM_P1;HPM_P2
2021/12/25 00:01:19;;;;;;;23.85;10.27;;;;;;;-10.70;66.21;96882.94;4936179;29;20137;-59
2021/12/25 00:03:45;;;;;;;22.75;10.65;;;;;;;-10.71;66.38;96883.88;4951727;29;20048;-57
2021/12/25 00:06:11;;;;;;;30.20;11.68;;;;;;;-10.60;67.28;96871.53;4936694;29;20067;-58
2021/12/25 00:08:37;;;;;;;22.55;10.30;;;;;;;-10.84;66.39;96821.22;4936263;29;20044;-57
2021/12/25 00:11:04;;;;;;;23.48;11.27;;;;;;;-10.76;66.45;96836.56;4951839;29;20043;-59
2021/12/25 00:13:31;;;;;;;25.40;9.63;;;;;;;-10.76;66.11;96841.66;4937734;29;20114;-58
2021/12/25 00:15:57;;;;;;;31.95;11.85;;;;;;;-10.70;66.52;96832.53;4935652;29;20410;-58
2021/12/25 00:18:23;;;;;;;23.42;10.68;;;;;;;-10.72;66.76;96819.09;4935854;29;20043;-60
2021/12/25 00:20:49;;;;;;;26.25;10.35;;;;;;;-10.71;66.64;96825.81;4919956;29;20047;-59
2021/12/25 00:23:15;;;;;;;28.27;12.60;;;;;;;-10.68;67.46;96820.34;4937245;29;20054;-59
2021/12/25 00:25:49;;;;;;;24.05;10.15;;;;;;;-10.73;66.52;96814.94;4919043;29;20489;-58
2021/12/25 00:35:56;;;;;;;26.65;10.68;;;;;;;-10.83;67.20;96792.09;4936584;29;20056;-59
2021/12/25 00:38:21;;;;;;;19.95;10.48;;;;;;;-10.76;66.81;96784.56;4936744;29;20048;-58
2021/12/25 00:40:47;;;;;;;23.08;10.43;;;;;;;-10.81;66.61;96779.16;4936827;29;20087;-58
2021/12/25 00:43:13;;;;;;;21.50;10.10;;;;;;;-10.78;67.30;96766.81;4951545;28;20047;-59
2021/12/25 00:45:38;;;;;;;24.85;11.20;;;;;;;-10.81;67.42;96758.69;4934679;29;20147;-56
2021/12/25 00:48:04;;;;;;;23.98;10.65;;;;;;;-10.71;66.38;96751.56;4919097;29;20087;-59
2021/12/25 00:50:31;;;;;;;21.08;10.57;;;;;;;-10.82;66.62;96737.41;4951123;29;20044;-57
2021/12/25 00:52:57;;;;;;;21.15;9.43;;;;;;;-10.72;65.95;96750.00;4934588;29;20565;-57
2021/12/25 00:55:23;;;;;;;16.20;8.35;;;;;;;-10.78;66.63;96737.88;4935992;29;20130;-58
2021/12/25 00:57:48;;;;;;;22.50;9.82;;;;;;;-10.81;66.31;96738.22;4936748;29;20088;-59
2021/12/25 01:00:15;;;;;;;18.13;9.48;;;;;;;-10.82;66.78;96732.28;4917453;29;20048;-56
2021/12/25 01:02:44;;;;;;;22.05;10.40;;;;;;;-10.73;67.02;96716.88;4916188;29;20052;-58
2021/12/25 01:05:12;;;;;;;23.17;10.70;;;;;;;-10.73;66.58;96704.06;4918295;29;20138;-59
2021/12/25 01:07:39;;;;;;;26.23;10.75;;;;;;;-10.62;67.24;96696.00;4934758;29;20265;-58
2021/12/25 01:10:11;;;;;;;25.77;9.65;;;;;;;-10.54;66.40;96698.53;4934935;29;20091;-56
2021/12/25 01:12:57;;;;;;;15.05;7.60;;;;;;;-10.70;66.36;96686.63;4936610;29;20058;-59
2021/12/25 01:15:33;;;;;;;19.40;8.65;;;;;;;-10.75;66.71;96696.56;4935142;29;20414;-58
2021/12/25 01:23:41;;;;;;;20.45;7.97;;;;;;;-10.66;66.30;96671.72;4925609;29;20143;-56
2021/12/25 01:26:48;;;;;;;22.95;8.95;;;;;;;-10.66;66.40;96669.97;4936114;29;20430;-57
2021/12/25 01:32:11;;;;;;;18.45;8.50;;;;;;;-10.56;66.00;96669.72;4936333;29;20051;-57
2021/12/25 01:41:27;;;;;;;19.52;8.63;;;;;;;-10.59;66.45;96667.50;4949453;29;20055;-57
2021/12/25 01:47:52;;;;;;;19.48;8.07;;;;;;;-10.41;65.74;96645.00;4879535;29;20056;-57
2021/12/25 01:50:22;;;;;;;21.83;8.27;;;;;;;-10.33;66.68;96646.66;4866543;29;20076;-54
2021/12/25 01:52:49;;;;;;;;;;;;;;;-10.41;66.44;96642.44;4915879;29;20048;-58
2021/12/25 01:55:18;;;;;;;17.77;9.00;;;;;;;-10.44;66.27;96641.94;4936012;29;20393;-57
2021/12/25 01:57:44;;;;;;;16.73;8.53;;;;;;;-10.37;66.87;96630.06;4919903;29;20043;-58
2021/12/25 02:00:19;;;;;;;19.70;8.60;;;;;;;-10.33;66.07;96621.06;4935307;29;20631;-56
2021/12/25 02:02:45;;;;;;;23.25;9.13;;;;;;;-10.24;67.06;96619.19;4949316;29;20062;-57
2021/12/25 02:05:11;;;;;;;21.30;8.73;;;;;;;-10.33;66.28;96611.59;4931641;29;20060;-57
2021/12/25 02:07:37;;;;;;;27.30;10.32;;;;;;;-10.34;66.84;96604.91;4911757;29;20046;-56
2021/12/25 02:10:05;;;;;;;18.27;8.93;;;;;;;-10.34;66.97;96607.47;4911718;29;20048;-56
2021/12/25 02:12:33;;;;;;;21.55;8.95;;;;;;;-10.33;67.83;96595.44;4930522;29;20072;-58
2021/12/25 02:15:06;;;;;;;17.02;8.13;;;;;;;-10.30;66.87;96583.09;4933484;29;20054;-57
2021/12/25 02:20:47;;;;;;;22.10;8.73;;;;;;;-10.29;66.87;96578.78;4943105;28;20068;-59
2021/12/25 02:23:21;;;;;;;18.17;8.13;;;;;;;-10.27;66.67;96576.81;4932496;29;20613;-56
2021/12/25 02:25:47;;;;;;;18.92;8.63;;;;;;;-10.28;67.46;96569.31;4932205;29;20064;-57
2021/12/25 02:28:14;;;;;;;20.67;9.00;;;;;;;-10.37;66.75;96563.47;4920401;29;20039;-56
2021/12/25 02:30:42;;;;;;;27.30;9.90;;;;;;;-10.33;67.08;96554.47;4951357;29;20047;-54
2021/12/25 02:33:08;;;;;;;19.95;8.98;;;;;;;-10.34;67.90;96555.44;4935291;29;20067;-56
2021/12/25 02:35:34;;;;;;;14.13;7.15;;;;;;;-10.30;66.74;96554.91;4935400;29;20051;-58
2021/12/25 02:38:00;;;;;;;20.05;9.95;;;;;;;-10.32;66.96;96543.28;4934691;29;20438;-58
2021/12/25 02:40:26;;;;;;;19.13;9.73;;;;;;;-10.30;66.78;96549.00;4935331;29;20063;-57
2021/12/25 02:42:52;;;;;;;25.38;10.25;;;;;;;-10.22;66.97;96542.97;4950958;29;20062;-56
2021/12/25 02:45:20;;;;;;;23.77;10.18;;;;;;;-10.19;66.45;96540.84;4935238;29;20047;-56
2021/12/25 02:47:48;;;;;;;19.85;9.95;;;;;;;-10.07;66.93;96534.31;4951063;29;20525;-58
2021/12/25 02:50:31;;;;;;;29.83;10.55;;;;;;;-9.92;67.02;96536.84;4935108;29;20051;-59
2021/12/25 02:52:59;;;;;;;17.48;9.85;;;;;;;-9.90;67.23;96523.88;4912543;29;20055;-55
2021/12/25 02:55:25;;;;;;;21.65;9.82;;;;;;;-9.93;66.96;96522.47;4929894;29;20139;-57
2021/12/25 02:57:52;;;;;;;18.88;9.93;;;;;;;-9.96;66.75;96512.56;4945465;29;20040;-54
2021/12/25 03:00:31;;;;;;;21.48;9.23;;;;;;;-10.07;66.19;96524.06;4913578;29;20127;-55
2021/12/25 03:03:00;;;;;;;21.67;8.75;;;;;;;-9.99;66.49;96518.06;4914116;29;20111;-56
2021/12/25 03:05:26;;;;;;;24.77;10.32;;;;;;;-9.90;66.75;96524.66;4913914;29;20143;-57
2021/12/25 03:07:53;;;;;;;23.10;9.30;;;;;;;-9.85;66.52;96516.47;4914030;29;20052;-58
2021/12/25 03:10:20;;;;;;;28.73;10.60;;;;;;;-9.80;67.15;96514.13;4913963;29;20135;-55
2021/12/25 03:13:04;;;;;;;22.23;10.43;;;;;;;-9.75;66.55;96511.03;4915041;29;20511;-56
2021/12/25 03:15:45;;;;;;;21.83;8.93;;;;;;;-9.73;66.00;96506.53;4913920;29;20111;-56
2021/12/25 03:18:29;;;;;;;26.40;10.65;;;;;;;-9.74;67.24;96505.72;4929677;29;20055;-56
2021/12/25 03:20:58;;;;;;;22.63;10.38;;;;;;;-9.76;67.15;96501.75;4913448;29;20099;-58
2021/12/25 03:23:26;;;;;;;21.92;11.43;;;;;;;-9.66;67.49;96504.84;4915130;29;20048;-58
2021/12/25 03:25:53;;;;;;;21.55;9.88;;;;;;;-9.71;67.36;96491.75;4913602;29;20154;-57
2021/12/25 03:28:22;;;;;;;26.92;11.23;;;;;;;-9.63;67.63;96489.09;4945452;29;20083;-59
2021/12/25 03:30:49;;;;;;;21.88;10.00;;;;;;;-9.63;66.86;96481.41;4913004;29;20040;-58
2021/12/25 03:33:19;;;;;;;24.67;10.32;;;;;;;-9.60;67.03;96478.47;4913573;29;20063;-56
2021/12/25 03:35:46;;;;;;;24.65;10.93;;;;;;;-9.60;67.20;96471.56;4914621;28;20044;-56
2021/12/25 03:38:15;;;;;;;28.05;11.07;;;;;;;-9.50;66.94;96466.16;4914609;29;20396;-58
2021/12/25 03:40:41;;;;;;;24.60;11.10;;;;;;;-9.47;67.26;96457.28;4914605;29;20392;-55
2021/12/25 03:43:07;;;;;;;23.80;10.90;;;;;;;-9.51;67.58;96459.41;4898767;29;20059;-56
2021/12/25 03:45:34;;;;;;;28.95;11.93;;;;;;;-9.52;66.66;96457.84;4914069;29;20139;-57
2021/12/25 03:48:11;;;;;;;21.67;10.55;;;;;;;-9.52;67.55;96450.16;4914296;29;20056;-57
2021/12/25 03:53:37;;;;;;;35.28;11.73;;;;;;;-9.48;66.99;96438.53;4942831;29;20139;-58
2021/12/25 03:58:52;;;;;;;19.95;9.50;;;;;;;-9.35;67.42;96426.81;4896326;29;20056;-58
2021/12/25 04:04:04;;;;;;;24.13;10.18;;;;;;;-9.39;67.24;96423.81;4910302;29;20119;-58
2021/12/25 04:06:44;;;;;;;21.52;10.05;;;;;;;-9.40;66.99;96422.25;4881801;29;20060;-57
2021/12/25 04:09:21;;;;;;;20.98;10.23;;;;;;;-9.30;66.12;96421.94;4878676;29;20476;-57
2021/12/25 04:11:47;;;;;;;43.60;11.93;;;;;;;-9.27;67.09;96412.06;4896072;29;20506;-57
2021/12/25 04:14:13;;;;;;;26.10;10.80;;;;;;;-9.26;66.51;96406.00;4894711;29;20053;-60
2021/12/25 04:16:39;;;;;;;26.15;10.75;;;;;;;-9.24;67.61;96409.13;4895903;29;20043;-56
2021/12/25 04:19:05;;;;;;;27.85;11.73;;;;;;;-9.21;66.60;96401.06;4878900;29;20080;-58
2021/12/25 04:21:34;;;;;;;26.40;11.65;;;;;;;-9.24;66.25;96395.53;4894591;29;20475;-56
2021/12/25 04:24:00;;;;;;;26.95;12.20;;;;;;;-9.15;67.30;96390.09;4895936;29;20048;-58
2021/12/25 04:26:28;;;;;;;20.17;10.82;;;;;;;-9.17;67.27;96379.22;4894358;29;20049;-55
2021/12/25 04:32:02;;;;;;;21.20;9.13;;;;;;;-9.35;66.67;96380.63;4913384;29;20045;-58
2021/12/25 05:07:15;;;;;;;22.05;11.00;;;;;;;-9.16;66.88;96347.44;4913774;29;20064;-57
2021/12/25 05:09:41;;;;;;;20.70;10.75;;;;;;;-9.10;68.04;96351.03;4881849;29;20056;-58
2021/12/25 05:12:08;;;;;;;20.15;10.02;;;;;;;-9.25;67.71;96352.91;4897378;29;20071;-56
2021/12/25 05:14:35;;;;;;;17.27;10.07;;;;;;;-9.16;67.47;96346.66;4912968;29;20048;-56
2021/12/25 05:17:02;;;;;;;25.35;9.85;;;;;;;-9.11;68.34;96340.97;4899408;29;20060;-58
2021/12/25 05:19:29;;;;;;;24.40;11.05;;;;;;;-9.15;67.98;96340.53;4900770;29;20135;-57
2021/12/25 05:21:54;;;;;;;20.25;9.63;;;;;;;-9.29;68.89;96344.78;4900319;29;20579;-57
2021/12/25 05:24:22;;;;;;;18.92;10.30;;;;;;;-9.28;68.88;96332.75;4885411;29;20036;-57
2021/12/25 05:26:56;;;;;;;22.63;9.80;;;;;;;-9.28;68.79;96330.19;4901455;29;20112;-57
2021/12/25 05:29:26;;;;;;;25.40;10.13;;;;;;;-9.18;68.92;96330.63;4900485;29;20052;-57
2021/12/25 05:31:53;;;;;;;22.50;9.40;;;;;;;-9.23;68.71;96328.66;4899207;29;20041;-58
2021/12/25 05:34:39;;;;;;;19.45;9.52;;;;;;;-9.15;69.03;96318.25;4880870;29;20056;-56
2021/12/25 05:37:23;;;;;;;19.95;9.48;;;;;;;-9.06;68.07;96318.06;4898550;29;20059;-59
2021/12/25 05:39:58;;;;;;;20.95;9.75;;;;;;;-9.15;67.04;96320.00;4895765;29;20044;-57
2021/12/25 05:42:29;;;;;;;22.92;11.15;;;;;;;-9.05;68.08;96314.56;4896820;29;20059;-57
2021/12/25 05:44:55;;;;;;;24.88;9.32;;;;;;;-9.02;68.06;96317.53;4896509;29;20052;-57
2021/12/25 05:47:24;;;;;;;24.83;10.02;;;;;;;-8.95;66.76;96302.94;4896584;29;20127;-58
2021/12/25 05:49:54;;;;;;;;;;;;;;;-8.83;68.67;96303.19;4896827;29;20072;-58
2021/12/25 05:52:38;;;;;;;22.17;9.30;;;;;;;-8.79;67.86;96301.84;4898000;29;20026;-57
2021/12/25 05:55:42;;;;;;;19.90;8.20;;;;;;;-8.76;67.75;96292.97;4932122;29;20047;-58
2021/12/25 05:58:31;;;;;;;21.80;9.73;;;;;;;-8.84;68.39;96298.25;4917157;29;20055;-58
2021/12/25 06:01:16;;;;;;;20.60;9.27;;;;;;;-8.95;67.68;96294.44;4906175;29;20064;-60
2021/12/25 06:03:42;;;;;;;21.08;10.13;;;;;;;-8.85;67.78;96286.41;4898642;29;20063;-59
2021/12/25 06:06:07;;;;;;;22.15;9.77;;;;;;;-8.78;67.55;96282.09;4946567;29;20040;-58
2021/12/25 06:08:33;;;;;;;22.85;9.88;;;;;;;-8.79;68.51;96293.34;4916177;29;20056;-59
2021/12/25 06:11:02;;;;;;;17.35;9.48;;;;;;;-8.80;68.76;96291.75;4898917;29;20040;-58
2021/12/25 06:13:29;;;;;;;23.90;10.07;;;;;;;-8.87;67.25;96278.91;4914887;29;20052;-58
2021/12/25 06:15:56;;;;;;;21.90;9.10;;;;;;;-8.73;68.26;96282.31;4899155;29;20052;-57
2021/12/25 06:18:40;;;;;;;19.00;9.32;;;;;;;-8.72;68.34;96281.31;4912071;29;20060;-57
2021/12/25 06:21:19;;;;;;;24.05;11.07;;;;;;;-8.68;68.48;96279.94;4903948;29;20055;-56
2021/12/25 06:24:14;;;;;;;18.65;9.48;;;;;;;-8.68;68.19;96272.25;4896784;29;20507;-58
2021/12/25 06:26:56;;;;;;;24.65;10.27;;;;;;;-8.51;70.80;96272.69;4929173;29;20048;-59
2021/12/25 06:29:38;;;;;;;18.92;9.77;;;;;;;-8.33;67.78;96262.63;4932707;29;20051;-57
2021/12/25 06:32:32;;;;;;;19.08;10.68;;;;;;;-8.30;67.41;96267.38;4913296;29;20123;-58
2021/12/25 06:35:17;;;;;;;20.45;9.43;;;;;;;-8.34;67.43;96263.63;4913396;29;20135;-58
2021/12/25 06:37:59;;;;;;;20.30;9.95;;;;;;;-8.22;66.98;96259.50;4896194;29;20529;-56
2021/12/25 06:40:45;;;;;;;17.83;8.38;;;;;;;-8.24;67.11;96269.16;4893720;29;20431;-55
2021/12/25 06:43:11;;;;;;;25.15;9.88;;;;;;;-8.15;67.83;96263.84;4894477;29;20082;-56
2021/12/25 06:45:37;;;;;;;22.60;10.52;;;;;;;-8.21;68.26;96265.41;4878270;29;20697;-57
2021/12/25 06:48:03;;;;;;;21.17;9.80;;;;;;;-8.11;66.84;96268.41;4878490;29;20198;-60
2021/12/25 06:50:55;;;;;;;20.98;8.88;;;;;;;-7.98;66.79;96262.47;4881274;29;20053;-58
2021/12/25 06:53:42;;;;;;;19.92;8.85;;;;;;;-7.86;67.95;96258.34;4893482;29;20065;-58
2021/12/25 06:56:23;;;;;;;20.70;9.98;;;;;;;-7.83;65.99;96255.38;4878128;29;20044;-57
2021/12/25 06:59:06;;;;;;;19.88;9.85;;;;;;;-8.04;65.23;96243.50;4893822;29;20161;-53
2021/12/25 07:01:36;;;;;;;;;;;;;;;-8.02;66.72;96249.25;4878948;29;20064;-57
2021/12/25 07:04:06;;;;;;;20.17;10.15;;;;;;;-7.98;67.34;96247.06;4889661;29;19934;-58
2021/12/25 07:06:51;;;;;;;20.70;10.48;;;;;;;-7.92;66.68;96232.63;4895385;29;20466;-57
2021/12/25 07:09:38;;;;;;;22.88;9.85;;;;;;;-7.72;66.91;96240.34;4933770;29;20102;-60
2021/12/25 07:12:24;;;;;;;23.67;9.55;;;;;;;-7.74;66.49;96243.09;4911948;29;20321;-58
2021/12/25 07:15:06;;;;;;;17.75;9.73;;;;;;;-7.80;65.45;96229.25;4894761;29;20120;-57
2021/12/25 07:17:42;;;;;;;22.98;10.52;;;;;;;-7.75;67.63;96238.97;4894966;29;20491;-57
2021/12/25 07:20:26;;;;;;;21.50;9.10;;;;;;;-7.81;67.41;96232.81;4910607;29;20049;-60
2021/12/25 07:22:58;;;;;;;18.88;9.90;;;;;;;-7.64;68.23;96235.00;4913058;29;20052;-57
2021/12/25 07:25:36;;;;;;;24.48;9.85;;;;;;;-7.61;68.19;96235.38;4912936;29;20055;-58
2021/12/25 07:28:05;;;;;;;27.83;10.98;;;;;;;-7.45;66.85;96238.53;4912880;29;20510;-58
2021/12/25 07:30:31;;;;;;;20.67;9.38;;;;;;;-7.35;65.90;96241.50;4913637;29;20079;-55
2021/12/25 07:32:56;;;;;;;22.15;10.20;;;;;;;-7.28;66.39;96228.59;4897727;29;20396;-57
2021/12/25 07:35:22;;;;;;;17.02;9.88;;;;;;;-7.23;65.64;96226.22;4899137;29;20064;-56
2021/12/25 07:37:48;;;;;;;21.30;10.20;;;;;;;-7.06;67.97;96223.97;4896404;29;20126;-57
2021/12/25 07:40:14;;;;;;;17.08;9.27;;;;;;;-7.06;65.97;96214.47;4929334;29;20058;-59
2021/12/25 07:42:40;;;;;;;22.17;10.80;;;;;;;-7.17;65.86;96213.31;4911704;29;20032;-55
2021/12/25 07:45:21;;;;;;;25.17;11.40;;;;;;;-7.12;66.97;96221.25;4895034;29;20056;-59
2021/12/25 07:47:55;;;;;;;24.58;10.82;;;;;;;-7.00;66.81;96218.00;4863520;29;20060;-60
2021/12/25 07:50:21;;;;;;;21.88;11.00;;;;;;;-6.93;65.66;96219.56;4895809;29;20083;-58
2021/12/25 07:52:47;;;;;;;21.40;11.15;;;;;;;-7.08;65.84;96221.63;4895167;29;20068;-59
2021/12/25 07:55:13;;;;;;;19.05;10.00;;;;;;;-6.91;66.60;96217.59;4916754;29;20131;-59
2021/12/25 07:57:38;;;;;;;24.67;10.52;;;;;;;-7.11;66.04;96212.50;4914868;29;20498;-58
2021/12/25 08:00:09;;;;;;;21.42;10.65;;;;;;;-7.18;65.33;96211.72;4907537;29;20090;-60
2021/12/25 08:02:38;;;;;;;21.13;10.85;;;;;;;-7.23;66.34;96208.19;4911974;29;20059;-56
2021/12/25 08:05:05;;;;;;;22.58;10.75;;;;;;;-7.16;65.80;96203.81;4918148;29;20044;-58
2021/12/25 08:07:30;;;;;;;21.77;10.32;;;;;;;-7.02;66.39;96200.19;4916263;29;20051;-56
2021/12/25 08:10:03;;;;;;;24.02;11.55;;;;;;;-6.88;66.33;96211.25;4916095;29;20056;-56
2021/12/25 08:12:29;;;;;;;25.75;10.45;;;;;;;-6.74;65.61;96202.44;4918122;29;20455;-58
2021/12/25 08:14:55;;;;;;;22.30;10.93;;;;;;;-6.61;64.68;96201.59;4917843;29;20054;-58
2021/12/25 08:17:21;;;;;;;27.92;11.52;;;;;;;-6.56;67.09;96208.69;4916560;29;20086;-54
2021/12/25 08:20:06;;;;;;;26.13;11.43;;;;;;;-6.40;65.51;96211.56;4918196;29;20058;-60
2021/12/25 08:22:50;;;;;;;21.88;10.10;;;;;;;-6.40;67.36;96213.38;4915622;29;20051;-53
2021/12/25 08:25:35;;;;;;;23.27;11.23;;;;;;;-6.63;64.36;96213.88;4899157;29;20063;-60
2021/12/25 08:28:19;;;;;;;21.48;10.15;;;;;;;-6.57;64.40;96201.97;4901253;29;20091;-56
2021/12/25 08:31:07;;;;;;;24.02;10.98;;;;;;;-6.43;66.48;96203.47;4910859;29;20103;-56
2021/12/25 08:33:59;;;;;;;18.52;10.45;;;;;;;-6.42;64.71;96205.03;4915477;29;20064;-59
2021/12/25 08:36:47;;;;;;;24.98;12.07;;;;;;;-6.25;64.51;96200.19;4917475;29;20060;-56
2021/12/25 08:39:13;;;;;;;22.65;11.27;;;;;;;-6.28;63.92;96209.13;4917895;29;20525;-57
2021/12/25 08:41:39;;;;;;;27.33;10.45;;;;;;;-6.41;64.23;96220.31;4916429;29;20092;-57
2021/12/25 08:44:32;;;;;;;24.73;12.13;;;;;;;-6.36;65.43;96208.56;4917639;29;20058;-57
2021/12/25 08:46:59;;;;;;;18.75;9.95;;;;;;;-6.18;64.46;96204.31;4916601;29;20107;-58
2021/12/25 08:49:26;;;;;;;;;;;;;;;-6.18;63.71;96211.22;4918287;29;20143;-55
2021/12/25 08:51:52;;;;;;;25.10;10.70;;;;;;;-6.18;64.24;96208.66;4932210;29;19923;-58
2021/12/25 08:54:18;;;;;;;23.10;9.73;;;;;;;-6.06;63.24;96201.84;4900533;29;20067;-58
2021/12/25 08:56:44;;;;;;;23.92;11.07;;;;;;;-6.07;63.87;96210.56;4916115;29;20050;-55
2021/12/25 08:59:10;;;;;;;23.75;11.50;;;;;;;-6.04;64.23;96206.78;4917444;29;20226;-58
2021/12/25 09:01:36;;;;;;;28.20;11.32;;;;;;;-6.05;64.35;96207.78;4917502;29;20092;-57
2021/12/25 09:04:02;;;;;;;20.75;10.75;;;;;;;-5.88;63.70;96200.25;4917286;29;20059;-57
2021/12/25 09:06:28;;;;;;;20.02;10.68;;;;;;;-6.03;64.49;96192.88;4917340;29;20056;-59
2021/12/25 09:08:53;;;;;;;23.77;10.63;;;;;;;-5.88;63.77;96195.91;4917527;29;20044;-56
2021/12/25 09:11:21;;;;;;;24.17;10.95;;;;;;;-5.83;64.25;96197.84;4917524;29;20585;-57
2021/12/25 09:13:48;;;;;;;23.65;9.98;;;;;;;-5.72;63.74;96202.31;4917188;29;20375;-57
2021/12/25 09:16:14;;;;;;;18.85;10.82;;;;;;;-5.58;64.52;96201.19;4917262;29;20095;-57
2021/12/25 09:18:40;;;;;;;19.63;9.63;;;;;;;-5.39;64.51;96201.19;4916127;29;20048;-58
2021/12/25 09:21:06;;;;;;;22.92;10.88;;;;;;;-5.26;62.42;96198.50;4917086;29;20408;-58
2021/12/25 09:23:32;;;;;;;23.00;11.93;;;;;;;-5.16;62.34;96201.34;4916918;29;20095;-59
2021/12/25 09:25:58;;;;;;;24.08;10.82;;;;;;;-5.11;64.12;96211.06;4915615;29;20473;-55
2021/12/25 09:28:23;;;;;;;23.10;10.98;;;;;;;-5.12;62.43;96207.66;4916882;29;20048;-58
2021/12/25 09:30:49;;;;;;;21.10;10.30;;;;;;;-5.00;64.03;96206.94;4916652;29;20146;-58
2021/12/25 09:33:15;;;;;;;24.52;10.80;;;;;;;-5.07;62.34;96215.56;4915679;29;20112;-55
2021/12/25 09:35:42;;;;;;;26.20;10.73;;;;;;;-5.14;63.61;96212.25;4917025;29;20091;-57
2021/12/25 09:38:08;;;;;;;20.20;10.43;;;;;;;-5.19;61.84;96219.06;4916851;29;20048;-54
2021/12/25 09:40:34;;;;;;;22.63;11.20;;;;;;;-5.10;63.68;96223.72;4916669;29;20098;-55
2021/12/25 09:43:00;;;;;;;23.45;11.30;;;;;;;-5.05;62.74;96228.28;4916547;29;20040;-57
2021/12/25 09:45:26;;;;;;;21.45;10.35;;;;;;;-4.97;63.40;96227.16;4915335;29;20127;-58
2021/12/25 09:47:51;;;;;;;24.02;12.20;;;;;;;-4.88;64.17;96233.63;4915235;29;20051;-57
2021/12/25 09:50:17;;;;;;;22.67;10.38;;;;;;;-4.92;63.31;96235.84;4915019;29;20044;-57
2021/12/25 09:52:43;;;;;;;21.48;10.60;;;;;;;-4.93;63.73;96236.88;4915008;29;20044;-58
2021/12/25 09:55:11;;;;;;;19.73;9.00;;;;;;;-5.10;61.12;96252.16;4916283;29;20519;-55
2021/12/25 09:57:39;;;;;;;28.25;11.35;;;;;;;-5.22;63.76;96243.53;4916776;29;20510;-59
2021/12/25 10:00:15;;;;;;;25.27;11.48;;;;;;;-5.12;64.61;96250.78;4915974;29;20126;-58
2021/12/25 10:02:47;;;;;;;20.58;10.00;;;;;;;-5.10;63.09;96254.72;4916514;29;20075;-58
2021/12/25 10:05:26;;;;;;;22.10;10.70;;;;;;;-5.10;62.92;96254.72;4930757;29;20048;-59
2021/12/25 10:08:13;;;;;;;21.45;10.43;;;;;;;-5.22;63.44;96266.00;4916431;29;20430;-58
2021/12/25 10:10:48;;;;;;;20.30;10.10;;;;;;;-5.39;64.59;96265.75;4916230;29;20048;-55
2021/12/25 10:13:27;;;;;;;26.67;10.13;;;;;;;-5.52;64.94;96269.25;4916343;29;20044;-56
2021/12/25 10:15:57;;;;;;;23.77;10.00;;;;;;;-5.49;67.33;96272.19;4915801;29;20126;-58
2021/12/25 10:18:32;;;;;;;24.52;10.93;;;;;;;-5.52;64.85;96277.75;4930648;29;20082;-57
2021/12/25 10:21:24;;;;;;;20.73;9.38;;;;;;;-5.74;64.06;96255.91;4914932;29;20130;-57
2021/12/25 10:24:25;;;;;;;20.52;10.00;;;;;;;-5.73;64.40;96252.34;4916248;29;20056;-58
2021/12/25 10:26:51;;;;;;;15.63;9.90;;;;;;;-5.72;63.37;96277.91;4942792;28;20190;-57
2021/12/25 10:29:19;;;;;;;21.50;9.68;;;;;;;-5.73;63.63;96286.66;4915832;29;20094;-60
2021/12/25 10:31:44;;;;;;;20.52;9.63;;;;;;;-5.69;64.37;96281.88;4914763;29;20052;-58
2021/12/25 10:34:16;;;;;;;18.58;8.20;;;;;;;-5.81;64.32;96292.09;4914401;29;20170;-56
2021/12/25 10:36:42;;;;;;;18.55;9.00;;;;;;;-5.86;64.61;96297.06;4915791;29;20581;-58
2021/12/25 10:39:16;;;;;;;23.60;9.48;;;;;;;-5.84;64.39;96297.66;4914524;29;20048;-60
2021/12/25 10:42:10;;;;;;;18.20;8.75;;;;;;;-5.79;65.03;96304.78;4914489;29;20044;-56
2021/12/25 10:44:48;;;;;;;13.40;7.32;;;;;;;-5.74;64.03;96305.72;4915635;29;20052;-58
2021/12/25 10:47:20;;;;;;;20.80;8.63;;;;;;;-5.96;64.42;96317.41;4915762;29;20060;-57
2021/12/25 10:49:54;;;;;;;17.85;9.73;;;;;;;-5.95;63.96;96324.16;4914152;29;20047;-59
2021/12/25 10:52:26;;;;;;;16.42;7.97;;;;;;;-5.92;64.07;96318.53;4915450;29;20593;-58
2021/12/25 10:55:02;;;;;;;14.98;8.00;;;;;;;-5.90;64.64;96337.19;4915260;29;20515;-58
2021/12/25 10:57:38;;;;;;;16.25;7.95;;;;;;;-5.72;65.73;96332.09;4915686;29;20040;-58
2021/12/25 11:00:06;;;;;;;16.50;8.25;;;;;;;-5.58;63.90;96332.03;4915211;29;20191;-57
2021/12/25 11:02:37;;;;;;;13.98;6.85;;;;;;;-5.82;62.90;96310.38;4913992;29;20102;-58
2021/12/25 11:05:23;;;;;;;14.65;6.38;;;;;;;-5.72;63.92;96339.84;4882718;29;20044;-56
2021/12/25 11:08:04;;;;;;;14.10;6.50;;;;;;;-5.62;64.09;96362.59;4915404;29;20462;-58
2021/12/25 11:10:30;;;;;;;14.43;6.75;;;;;;;-5.60;63.83;96360.59;4915325;29;20573;-59
2021/12/25 11:12:59;;;;;;;11.00;6.40;;;;;;;-5.51;63.11;96367.09;4913964;29;20070;-58
2021/12/25 11:15:29;;;;;;;9.52;5.70;;;;;;;-5.46;63.88;96374.22;4898214;29;20056;-57
2021/12/25 11:18:05;;;;;;;;;;;;;;;-5.50;63.61;96375.63;4916127;29;20495;-57
2021/12/25 11:20:39;;;;;;;12.18;6.43;;;;;;;-5.56;63.95;96377.28;4915193;29;19981;-58
2021/12/25 11:23:07;;;;;;;15.40;5.60;;;;;;;-5.55;63.24;96393.53;4913529;29;20099;-58
2021/12/25 11:25:35;;;;;;;10.38;5.35;;;;;;;-5.49;62.93;96396.06;4914978;29;20036;-61
2021/12/25 11:28:02;;;;;;;13.20;6.15;;;;;;;-5.51;63.66;96397.28;4914613;29;20531;-61
2021/12/25 11:30:31;;;;;;;12.48;5.90;;;;;;;-5.57;63.70;96405.84;4913362;29;20538;-57
2021/12/25 11:32:57;;;;;;;10.43;5.68;;;;;;;-5.64;64.12;96410.28;4899715;29;20041;-61
2021/12/25 11:35:23;;;;;;;10.07;5.13;;;;;;;-5.59;64.66;96408.66;4896073;29;20515;-65
2021/12/25 11:37:52;;;;;;;12.00;5.50;;;;;;;-5.55;63.56;96412.41;4898592;29;20049;-59
2021/12/25 11:40:19;;;;;;;9.93;5.30;;;;;;;-5.44;64.24;96418.69;4901109;29;20135;-57
2021/12/25 11:42:49;;;;;;;9.80;5.22;;;;;;;-5.32;64.30;96422.19;4905876;29;20067;-54
2021/12/25 11:45:21;;;;;;;7.90;5.05;;;;;;;-5.46;62.46;96430.22;4915456;29;20573;-57
2021/12/25 11:47:51;;;;;;;15.75;5.45;;;;;;;-5.50;62.42;96429.81;4917456;29;20052;-59
2021/12/25 11:50:24;;;;;;;9.15;5.05;;;;;;;-5.52;62.65;96445.53;4916504;29;20047;-56
2021/12/25 11:54:03;;;;;;;7.25;4.00;;;;;;;-5.54;63.67;96454.47;4907534;29;20047;-58
2021/12/25 11:59:10;;;;;;;8.63;4.10;;;;;;;-5.71;63.66;96472.22;4900137;29;20044;-58
2021/12/25 12:01:48;;;;;;;8.82;4.55;;;;;;;-5.70;64.62;96468.66;4899702;29;20407;-58
2021/12/25 12:04:21;;;;;;;7.03;4.43;;;;;;;-5.77;64.70;96473.81;4918141;29;20574;-55
2021/12/25 12:06:47;;;;;;;10.82;4.90;;;;;;;-5.72;64.06;96486.13;4914453;29;20052;-55
2021/12/25 12:09:17;;;;;;;10.18;5.47;;;;;;;-5.67;65.08;96494.06;4898210;29;20516;-59
2021/12/25 12:12:24;;;;;;;8.35;4.80;;;;;;;-5.66;64.82;96498.22;4915717;29;20052;-58
2021/12/25 12:15:17;;;;;;;10.05;4.65;;;;;;;-5.85;64.56;96512.78;4920715;29;20052;-59
2021/12/25 12:18:31;;;;;;;9.30;4.43;;;;;;;-5.92;65.40;96519.72;4911072;29;20679;-60
2021/12/25 12:21:20;;;;;;;9.15;3.83;;;;;;;-5.90;65.31;96517.75;4933811;29;20118;-56
2021/12/25 12:26:44;;;;;;;7.15;3.80;;;;;;;-6.11;64.87;96524.00;4917857;29;20639;-56
2021/12/25 12:29:11;;;;;;;5.63;3.60;;;;;;;-6.07;65.65;96545.00;4929328;29;20509;-55
2021/12/25 12:31:44;;;;;;;7.00;3.67;;;;;;;-6.17;64.87;96533.31;4917749;29;20059;-57
2021/12/25 12:34:28;;;;;;;7.25;3.67;;;;;;;-6.28;64.76;96554.53;4918312;29;20051;-53
2021/12/25 12:37:17;;;;;;;7.47;3.70;;;;;;;-6.21;65.53;96560.47;4917724;29;20135;-57
2021/12/25 12:39:57;;;;;;;6.30;3.03;;;;;;;-6.26;65.25;96564.69;4925656;29;20051;-58
2021/12/25 12:42:47;;;;;;;5.38;2.97;;;;;;;-6.36;65.68;96564.28;4930614;29;20067;-56
2021/12/25 12:45:34;;;;;;;8.27;3.05;;;;;;;-6.42;65.90;96565.84;4898380;29;20072;-60
2021/12/25 12:48:12;;;;;;;6.18;2.83;;;;;;;-6.46;65.95;96575.00;4899683;29;20506;-61
2021/12/25 12:50:40;;;;;;;5.65;2.85;;;;;;;-6.46;66.22;96583.50;4898627;29;20048;-60
2021/12/25 12:53:07;;;;;;;5.03;2.65;;;;;;;-6.46;65.42;96590.44;4899529;29;20508;-63
2021/12/25 12:55:39;;;;;;;4.10;2.80;;;;;;;-6.50;66.47;96579.75;4898625;29;20041;-61
2021/12/25 12:58:12;;;;;;;5.22;2.92;;;;;;;-6.37;66.22;96598.78;4911632;29;20100;-59
2021/12/25 13:00:39;;;;;;;4.05;2.50;;;;;;;-6.33;66.37;96611.06;4914539;29;20036;-59
2021/12/25 13:03:06;;;;;;;4.28;2.88;;;;;;;-6.28;66.43;96618.22;4903761;29;20084;-58
2021/12/25 13:05:38;;;;;;;7.75;3.65;;;;;;;-6.32;67.43;96615.25;4881310;29;20526;-60